Flight Track Log - Related Links

Times and Time Zones

All times are in EDT time to prevent confusion due to time zone crossing. See the N5293J flight status page for this flight to view local times or setup timezone preferences in your user account.

Time Position Orientation Groundspeed Altitude Reporting Facility
EDT Latitude Longitude Course Direction KTS MPH feet Rate Location/Type
Fri 04:51:58 PM 46.3383 -87.3981 161° South 10 12 1,100  Level Minneapolis Center
Fri 04:53:00 PM 46.3631 -87.3922 North 90 104 1,800 919 Climbing Minneapolis Center
Fri 04:54:02 PM 46.4006 -87.3822 10° North 121 139 3,000 1,016 Climbing Minneapolis Center
Fri 04:55:04 PM 46.4308 -87.3656 21° North 133 153 3,900 1,016 Climbing Minneapolis Center
Fri 04:56:06 PM 46.4008 -87.3289 140° Southeast 148 170 5,100 1,065 Climbing Minneapolis Center
Fri 04:57:08 PM 46.3603 -87.3131 165° South 148 170 6,100 968 Climbing Minneapolis Center
Fri 04:58:00 PM 46.0752 -87.2886 161° South  Level Estimated
Fri 04:58:10 PM 46.3189 -87.2983 166° South 149 171 7,100  Level Minneapolis Center
Fri 04:59:12 PM 46.2758 -87.2825 166° South 155 178 8,000 912 Climbing Minneapolis Center
Fri 05:00:15 PM 46.2314 -87.2667 166° South 161 185 9,000 1,008 Climbing Minneapolis Center
Fri 05:01:17 PM 46.1847 -87.2492 165° South 157 181 10,100 1,016 Climbing Minneapolis Center
Fri 05:02:19 PM 46.1425 -87.2322 164° South 154 177 11,100 919 Climbing Minneapolis Center
Fri 05:03:21 PM 46.0983 -87.2167 166° South 161 185 12,000 919 Climbing Minneapolis Center
Fri 05:04:23 PM 46.0536 -87.2022 167° South 162 186 13,000 919 Climbing Minneapolis Center
Fri 05:05:25 PM 46.0103 -87.1853 165° South 160 184 13,900 919 Climbing Minneapolis Center
Fri 05:06:27 PM 45.9611 -87.1683 167° South 166 191 14,900 484 Climbing Minneapolis Center
Fri 05:07:29 PM 45.9106 -87.1525 168° South 186 214 14,900  Level Minneapolis Center
Fri 05:08:31 PM 45.8522 -87.1322 166° South 208 239 14,900  Level Minneapolis Center
Fri 05:09:33 PM 45.7947 -87.1114 166° South 209 241 14,900  Level Minneapolis Center
Fri 05:10:35 PM 45.7375 -87.0889 165° South 210 242 14,900  Level Minneapolis Center
Fri 05:11:37 PM 45.6750 -87.0681 167° South 210 242 14,900  Level Minneapolis Center
Fri 05:12:39 PM 45.6164 -87.0506 168° South 210 242 14,900  Level Minneapolis Center
Fri 05:13:41 PM 45.5592 -87.0314 167° South 211 243 14,900  Level Minneapolis Center
Fri 05:14:43 PM 45.5031 -87.0117 166° South 210 242 14,900  Level Minneapolis Center
Fri 05:15:45 PM 45.4461 -86.9944 168° South 211 243 14,900  Level Minneapolis Center
Fri 05:16:47 PM 45.3892 -86.9747 166° South 211 243 14,900  Level Minneapolis Center
Fri 05:17:49 PM 45.3328 -86.9542 166° South 210 242 14,900  Level Minneapolis Center
Fri 05:18:51 PM 45.2658 -86.9303 166° South 209 241 14,900  Level Minneapolis Center
Fri 05:19:53 PM 45.2094 -86.9083 165° South 211 243 14,900  Level Minneapolis Center
Fri 05:20:55 PM 45.1533 -86.8886 166° South 210 242 14,900  Level Minneapolis Center
Fri 05:21:56 PM 45.0989 -86.8675 165° South 206 237 14,900  Level Minneapolis Center
Fri 05:22:58 PM 45.0444 -86.8469 165° South 204 235 14,900  Level Minneapolis Center
Fri 05:24:00 PM 44.9903 -86.8292 167° South 202 232 14,900 48 Level Minneapolis Center
Fri 05:25:02 PM 44.9250 -86.8083 167° South 201 231 15,000 48 Climbing Minneapolis Center
Fri 05:26:04 PM 44.8722 -86.7925 168° South 197 227 15,000  Level Minneapolis Center
Fri 05:27:06 PM 44.8194 -86.7750 167° South 196 226 15,000 -48 Level Minneapolis Center
Fri 05:28:08 PM 44.7661 -86.7583 167° South 197 227 14,900 -48 Descending Minneapolis Center
Fri 05:29:10 PM 44.7131 -86.7425 168° South 196 226 14,900  Level Minneapolis Center
Fri 05:30:12 PM 44.6603 -86.7250 167° South 196 226 14,900  Level Minneapolis Center
Fri 05:31:14 PM 44.5972 -86.7025 166° South 195 224 14,900  Level Minneapolis Center
Fri 05:32:15 PM 44.5447 -86.6842 166° South 195 224 14,900  Level Minneapolis Center
Fri 05:33:17 PM 44.4917 -86.6647 165° South 196 226 14,900 -97 Level Minneapolis Center
Fri 05:34:19 PM 44.4386 -86.6469 167° South 197 227 14,700 -339 Descending Minneapolis Center
Fri 05:35:21 PM 44.3825 -86.6289 167° South 205 236 14,200 -484 Descending Minneapolis Center
Fri 05:36:23 PM 44.3242 -86.6131 169° South 211 243 13,700 -629 Descending Minneapolis Center
Fri 05:37:25 PM 44.2547 -86.5917 168° South 213 245 12,900 -634 Descending Minneapolis Center
Fri 05:38:26 PM 44.1969 -86.5722 166° South 213 245 12,400 -537 Descending Minneapolis Center
Fri 05:39:28 PM 44.1389 -86.5542 167° South 215 247 11,800 -581 Descending Minneapolis Center
Fri 05:40:30 PM 44.0775 -86.5331 166° South 216 249 11,200 -581 Descending Minneapolis Center
Fri 05:41:32 PM 44.0189 -86.5139 167° South 216 249 10,600 -629 Descending Minneapolis Center
Fri 05:42:34 PM 43.9614 -86.4936 166° South 214 246 9,900 -629 Descending Minneapolis Center
Fri 05:43:36 PM 43.9036 -86.4708 164° South 216 249 9,300 -677 Descending Minneapolis Center
Fri 05:44:38 PM 43.8478 -86.4522 166° South 209 241 8,500 -774 Descending Minneapolis Center
Fri 05:45:40 PM 43.7803 -86.4303 167° South 209 241 7,700 -629 Descending Minneapolis Center
Fri 05:46:42 PM 43.7233 -86.4153 169° South 208 239 7,200 -488 Descending Minneapolis Center
Fri 05:47:43 PM 43.6672 -86.3992 168° South 207 238 6,700 -537 Descending Minneapolis Center
Fri 05:48:45 PM 43.6111 -86.3814 167° South 207 238 6,100 -484 Descending Minneapolis Center
Fri 05:49:47 PM 43.5697 -86.3272 137° Southeast 215 247 5,700 -436 Descending Minneapolis Center
Fri 05:50:35 PM 43.5422 -86.2769 127° Southeast 211 243 5,300 -600 Descending Chicago Center
Fri 05:51:37 PM 43.5033 -86.2206 134° Southeast 206 237 4,600 -581 Descending Chicago Center
Fri 05:52:39 PM 43.4636 -86.1653 135° Southeast 205 236 4,100 -581 Descending Chicago Center
Fri 05:53:41 PM 43.4139 -86.1064 139° Southeast 199 229 3,400 -629 Descending Chicago Center
Fri 05:54:43 PM 43.3686 -86.0642 146° Southeast 198 228 2,800 -339 Descending Chicago Center
Fri 05:55:45 PM 43.3189 -86.0425 162° South 193 222 2,700 -48 Descending Chicago Center
Fri 05:56:47 PM 43.2753 -86.0467 184° South 175 201 2,700  Level Chicago Center
Fri 05:57:49 PM 43.2431 -86.0811 218° Southwest 162 186 2,700 -145 Level Chicago Center
Fri 05:58:51 PM 43.2181 -86.1375 239° Southwest 151 174 2,400 -528 Descending Chicago Center
Fri 05:59:54 PM 43.1967 -86.1800 235° Southwest 142 163 1,600 -672 Descending Chicago Center
Fri 06:00:56 PM 43.1778 -86.2186 236° Southwest 132 152 1,000 -339 Descending Chicago Center
Fri 06:01:58 PM 43.1639 -86.2514 240° Southwest 127 146 900 -97 Descending Chicago Center

Login

Don't have an account? Register now (free) for customized features, flight alerts, and more!